KCNB

Details ICAO KCNB
Name MYERS FIELD
Region United States
Timezone America/Chicago (UTC-5.0)
Plans Departing 0
Arriving 2
Stats Elevation 1,193 ft / 364 m (AMSL)
Location 44.729487° -96.266002°
Runways 1
Magnetic Variation 2.599° E
Sunrise 2018-05-25 10:48:41 UTC / 2018-05-25 05:48:41 Local
Sunset 2018-05-26 01:58:14 UTC / 2018-05-25 20:58:14 Local
Advertisement - Login to hide

Runways

ID Width Length Bearing (true) Bearing (mag) Surface Threshold Offset Overrun Length
12 75 ft / 23 m 4,643 ft / 1,415 m 121.37° 118.77° Asphalt 0 ft / 0 m 0 ft / 0 m
30 75 ft / 23 m 4,643 ft / 1,415 m 301.39° 298.79° Asphalt 250 ft / 76 m 0 ft / 0 m

Map

Weather


0- 5 10 15 20 25 30 35+ Temperature / ° C

Clouds and Precipitation
Forecast for 2018-05-26 00:00 UTC. Updated 6 hours ago

Ground ~20,000 ft ~40,000 ft Winds

METAR

KCNB 260455Z AUTO 22004KT 10SM CLR 22/13 A2972 RMK AO2 T02200125

TAF

Not found

Frequencies

Recorded 118.57 MHz AWOS 3
Approach 128.50 MHz MINNEAPOLIS CNTR
Unicom 122.90 MHz CTAF
Warning: Do not use this data for real-world aviation or navigation. No guarantee of current accuracy is given.